sensor_id;sensor_type;location;lat;lon;timestamp;pressure;altitude;pressure_sealevel;temperature;humidity
47763;BME280;33526;42.690;23.322;2023-05-21T00:01:37;94950.63;;;14.59;94.56
47763;BME280;33526;42.690;23.322;2023-05-21T00:04:03;94953.53;;;14.70;93.75
47763;BME280;33526;42.690;23.322;2023-05-21T00:06:34;94946.56;;;14.65;93.37
47763;BME280;33526;42.690;23.322;2023-05-21T00:09:03;94928.13;;;14.59;92.58
47763;BME280;33526;42.690;23.322;2023-05-21T00:11:29;94958.22;;;14.52;90.58
47763;BME280;33526;42.690;23.322;2023-05-21T00:13:55;94954.84;;;14.48;91.33
47763;BME280;33526;42.690;23.322;2023-05-21T00:16:21;94949.72;;;14.47;92.05
47763;BME280;33526;42.690;23.322;2023-05-21T00:18:48;94932.53;;;14.39;92.95
47763;BME280;33526;42.690;23.322;2023-05-21T00:21:14;94916.38;;;14.34;92.73
47763;BME280;33526;42.690;23.322;2023-05-21T00:23:42;94935.06;;;14.37;92.79
47763;BME280;33526;42.690;23.322;2023-05-21T00:26:08;94940.47;;;14.41;92.69
47763;BME280;33526;42.690;23.322;2023-05-21T00:28:33;94919.84;;;14.23;92.84
47763;BME280;33526;42.690;23.322;2023-05-21T00:30:59;94944.50;;;14.34;92.94
47763;BME280;33526;42.690;23.322;2023-05-21T00:33:24;94933.97;;;14.29;93.30
47763;BME280;33526;42.690;23.322;2023-05-21T00:35:54;94935.25;;;14.28;93.97
47763;BME280;33526;42.690;23.322;2023-05-21T00:38:19;94923.59;;;14.14;94.23
47763;BME280;33526;42.690;23.322;2023-05-21T00:40:46;94927.19;;;14.15;94.24
47763;BME280;33526;42.690;23.322;2023-05-21T00:43:12;94901.66;;;13.92;94.73
47763;BME280;33526;42.690;23.322;2023-05-21T00:45:39;94916.25;;;13.96;95.72
47763;BME280;33526;42.690;23.322;2023-05-21T00:48:07;94921.94;;;14.02;96.73
47763;BME280;33526;42.690;23.322;2023-05-21T00:50:33;94936.25;;;14.04;97.30
47763;BME280;33526;42.690;23.322;2023-05-21T00:52:58;94938.03;;;14.02;97.83
47763;BME280;33526;42.690;23.322;2023-05-21T00:55:24;94937.72;;;13.94;97.92
47763;BME280;33526;42.690;23.322;2023-05-21T00:57:50;94937.94;;;13.90;98.02
47763;BME280;33526;42.690;23.322;2023-05-21T01:00:15;94914.75;;;13.75;97.88
47763;BME280;33526;42.690;23.322;2023-05-21T01:02:41;94889.72;;;13.51;98.04
47763;BME280;33526;42.690;23.322;2023-05-21T01:05:08;94935.28;;;13.81;97.52
47763;BME280;33526;42.690;23.322;2023-05-21T01:07:35;94928.59;;;13.79;97.57
47763;BME280;33526;42.690;23.322;2023-05-21T01:10:06;94919.06;;;13.70;97.42
47763;BME280;33526;42.690;23.322;2023-05-21T01:12:33;94924.75;;;13.76;97.19
47763;BME280;33526;42.690;23.322;2023-05-21T01:15:03;94917.50;;;13.69;96.50
47763;BME280;33526;42.690;23.322;2023-05-21T01:17:29;94926.75;;;13.75;95.96
47763;BME280;33526;42.690;23.322;2023-05-21T01:19:59;94913.56;;;13.82;96.20
47763;BME280;33526;42.690;23.322;2023-05-21T01:22:25;94907.94;;;13.82;95.52
47763;BME280;33526;42.690;23.322;2023-05-21T01:24:53;94904.06;;;13.79;95.56
47763;BME280;33526;42.690;23.322;2023-05-21T01:27:19;94912.56;;;13.85;94.22
47763;BME280;33526;42.690;23.322;2023-05-21T01:29:45;94891.72;;;13.71;94.74
47763;BME280;33526;42.690;23.322;2023-05-21T01:35:03;94908.97;;;13.84;95.06
47763;BME280;33526;42.690;23.322;2023-05-21T01:37:50;94909.25;;;13.86;95.03
47763;BME280;33526;42.690;23.322;2023-05-21T01:40:22;94906.97;;;13.85;94.55
47763;BME280;33526;42.690;23.322;2023-05-21T01:42:50;94903.84;;;13.83;94.59
47763;BME280;33526;42.690;23.322;2023-05-21T01:45:16;94883.78;;;13.69;95.48
47763;BME280;33526;42.690;23.322;2023-05-21T01:47:44;94903.13;;;13.88;95.70
47763;BME280;33526;42.690;23.322;2023-05-21T01:50:12;94894.38;;;13.80;95.63
47763;BME280;33526;42.690;23.322;2023-05-21T01:52:38;94914.09;;;13.86;93.92
47763;BME280;33526;42.690;23.322;2023-05-21T01:55:04;94907.72;;;13.85;94.21
47763;BME280;33526;42.690;23.322;2023-05-21T01:57:29;94909.13;;;13.75;94.34
47763;BME280;33526;42.690;23.322;2023-05-21T01:59:56;94905.84;;;13.76;93.40
47763;BME280;33526;42.690;23.322;2023-05-21T02:02:22;94908.91;;;13.79;93.86
47763;BME280;33526;42.690;23.322;2023-05-21T02:04:47;94895.31;;;13.71;93.07
47763;BME280;33526;42.690;23.322;2023-05-21T02:07:14;94891.09;;;13.61;93.05
47763;BME280;33526;42.690;23.322;2023-05-21T02:09:40;94889.50;;;13.54;93.25
47763;BME280;33526;42.690;23.322;2023-05-21T02:12:05;94886.84;;;13.45;92.86
47763;BME280;33526;42.690;23.322;2023-05-21T02:14:31;94902.28;;;13.55;93.22
47763;BME280;33526;42.690;23.322;2023-05-21T02:17:00;94905.34;;;13.57;92.89
47763;BME280;33526;42.690;23.322;2023-05-21T02:19:26;94899.72;;;13.57;93.06
47763;BME280;33526;42.690;23.322;2023-05-21T02:21:51;94902.75;;;13.54;94.07
47763;BME280;33526;42.690;23.322;2023-05-21T02:24:17;94879.34;;;13.36;93.63
47763;BME280;33526;42.690;23.322;2023-05-21T02:26:42;94881.69;;;13.23;93.83
47763;BME280;33526;42.690;23.322;2023-05-21T02:29:08;94801.97;;;12.74;93.95
47763;BME280;33526;42.690;23.322;2023-05-21T02:31:33;94891.13;;;13.41;93.44
47763;BME280;33526;42.690;23.322;2023-05-21T02:33:59;94894.19;;;13.43;93.69
47763;BME280;33526;42.690;23.322;2023-05-21T02:36:24;94888.75;;;13.33;93.51
47763;BME280;33526;42.690;23.322;2023-05-21T02:38:50;94871.25;;;13.24;93.88
47763;BME280;33526;42.690;23.322;2023-05-21T02:41:16;94859.84;;;13.12;93.10
47763;BME280;33526;42.690;23.322;2023-05-21T02:43:41;94886.53;;;13.23;93.26
47763;BME280;33526;42.690;23.322;2023-05-21T02:46:06;94884.94;;;13.36;94.04
47763;BME280;33526;42.690;23.322;2023-05-21T02:48:32;94850.38;;;13.10;93.16
47763;BME280;33526;42.690;23.322;2023-05-21T02:50:58;94872.97;;;13.21;93.22
47763;BME280;33526;42.690;23.322;2023-05-21T02:53:24;94880.31;;;13.33;93.47
47763;BME280;33526;42.690;23.322;2023-05-21T02:55:49;94868.91;;;13.22;93.59
47763;BME280;33526;42.690;23.322;2023-05-21T02:58:15;94882.84;;;13.31;93.71
47763;BME280;33526;42.690;23.322;2023-05-21T03:00:40;94881.47;;;13.27;94.25
47763;BME280;33526;42.690;23.322;2023-05-21T03:03:06;94861.06;;;13.06;94.87
47763;BME280;33526;42.690;23.322;2023-05-21T03:05:31;94822.09;;;12.72;94.98
47763;BME280;33526;42.690;23.322;2023-05-21T03:07:57;94860.91;;;12.94;96.24
47763;BME280;33526;42.690;23.322;2023-05-21T03:10:22;94871.16;;;12.97;96.83
47763;BME280;33526;42.690;23.322;2023-05-21T03:12:47;94859.38;;;12.93;97.07
47763;BME280;33526;42.690;23.322;2023-05-21T03:15:13;94902.03;;;13.18;97.16
47763;BME280;33526;42.690;23.322;2023-05-21T03:17:39;94859.38;;;12.93;97.36
47763;BME280;33526;42.690;23.322;2023-05-21T03:20:07;94873.25;;;13.03;96.89
47763;BME280;33526;42.690;23.322;2023-05-21T03:22:33;94893.97;;;13.26;96.75
47763;BME280;33526;42.690;23.322;2023-05-21T03:24:58;94891.16;;;13.26;96.19
47763;BME280;33526;42.690;23.322;2023-05-21T03:27:24;94889.00;;;13.35;95.42
47763;BME280;33526;42.690;23.322;2023-05-21T03:29:50;94856.84;;;13.16;94.71
47763;BME280;33526;42.690;23.322;2023-05-21T03:32:16;94867.53;;;13.32;94.02
47763;BME280;33526;42.690;23.322;2023-05-21T03:34:41;94902.47;;;13.52;93.14
47763;BME280;33526;42.690;23.322;2023-05-21T03:37:06;94905.56;;;13.54;93.20
47763;BME280;33526;42.690;23.322;2023-05-21T03:39:32;94910.75;;;13.61;92.49
47763;BME280;33526;42.690;23.322;2023-05-21T03:41:57;94871.75;;;13.43;91.38
47763;BME280;33526;42.690;23.322;2023-05-21T03:44:23;94862.06;;;13.44;91.34
47763;BME280;33526;42.690;23.322;2023-05-21T03:46:48;94875.69;;;13.51;91.64
47763;BME280;33526;42.690;23.322;2023-05-21T03:49:14;94899.66;;;13.72;90.95
47763;BME280;33526;42.690;23.322;2023-05-21T03:51:39;94874.53;;;13.63;90.11
47763;BME280;33526;42.690;23.322;2023-05-21T03:54:05;94892.59;;;13.83;89.83
47763;BME280;33526;42.690;23.322;2023-05-21T03:56:30;94883.91;;;13.81;89.79
47763;BME280;33526;42.690;23.322;2023-05-21T03:58:55;94877.03;;;13.82;89.76
47763;BME280;33526;42.690;23.322;2023-05-21T04:01:21;94888.31;;;13.87;90.10
47763;BME280;33526;42.690;23.322;2023-05-21T04:03:46;94887.56;;;13.87;89.98
47763;BME280;33526;42.690;23.322;2023-05-21T04:06:12;94887.56;;;13.87;90.22
47763;BME280;33526;42.690;23.322;2023-05-21T04:08:37;94848.97;;;13.61;89.39
47763;BME280;33526;42.690;23.322;2023-05-21T04:11:03;94902.97;;;13.97;90.12
47763;BME280;33526;42.690;23.322;2023-05-21T04:13:29;94883.47;;;13.88;90.37
47763;BME280;33526;42.690;23.322;2023-05-21T04:15:54;94868.16;;;13.89;89.95
47763;BME280;33526;42.690;23.322;2023-05-21T04:18:20;94872.13;;;14.03;89.15
47763;BME280;33526;42.690;23.322;2023-05-21T04:20:46;94898.13;;;14.24;87.74
47763;BME280;33526;42.690;23.322;2023-05-21T04:23:14;94874.78;;;14.12;88.38
47763;BME280;33526;42.690;23.322;2023-05-21T04:25:39;94864.19;;;14.01;87.45
47763;BME280;33526;42.690;23.322;2023-05-21T04:28:04;94879.59;;;14.11;87.15
47763;BME280;33526;42.690;23.322;2023-05-21T04:30:30;94873.53;;;14.19;87.00
47763;BME280;33526;42.690;23.322;2023-05-21T04:32:55;94876.66;;;14.21;88.38
47763;BME280;33526;42.690;23.322;2023-05-21T04:35:22;94898.78;;;14.39;87.84
47763;BME280;33526;42.690;23.322;2023-05-21T04:37:47;94886.78;;;14.39;88.29
47763;BME280;33526;42.690;23.322;2023-05-21T04:40:13;94879.81;;;14.34;88.15
47763;BME280;33526;42.690;23.322;2023-05-21T04:42:45;94889.91;;;14.46;87.81
47763;BME280;33526;42.690;23.322;2023-05-21T04:45:12;94869.03;;;14.27;88.18
47763;BME280;33526;42.690;23.322;2023-05-21T04:47:38;94876.81;;;14.43;88.14
47763;BME280;33526;42.690;23.322;2023-05-21T04:50:04;94890.47;;;14.56;87.91
47763;BME280;33526;42.690;23.322;2023-05-21T04:52:29;94893.56;;;14.58;87.72
47763;BME280;33526;42.690;23.322;2023-05-21T04:54:55;94873.59;;;14.56;87.25
47763;BME280;33526;42.690;23.322;2023-05-21T04:57:21;94905.25;;;14.77;86.76
47763;BME280;33526;42.690;23.322;2023-05-21T04:59:48;94900.69;;;14.85;85.37
47763;BME280;33526;42.690;23.322;2023-05-21T05:02:13;94888.69;;;14.90;84.44
47763;BME280;33526;42.690;23.322;2023-05-21T05:04:39;94890.44;;;14.82;80.56
47763;BME280;33526;42.690;23.322;2023-05-21T05:07:04;94901.34;;;15.12;78.99
47763;BME280;33526;42.690;23.322;2023-05-21T05:09:30;94904.03;;;15.27;78.08
47763;BME280;33526;42.690;23.322;2023-05-21T05:11:55;94905.53;;;15.22;77.91
47763;BME280;33526;42.690;23.322;2023-05-21T05:14:21;94905.91;;;15.47;76.83
47763;BME280;33526;42.690;23.322;2023-05-21T05:16:46;94892.81;;;15.44;76.95
47763;BME280;33526;42.690;23.322;2023-05-21T05:19:14;94902.69;;;15.77;76.29
47763;BME280;33526;42.690;23.322;2023-05-21T05:21:40;94859.59;;;15.59;75.30
47763;BME280;33526;42.690;23.322;2023-05-21T05:24:05;94902.06;;;16.27;74.21
47763;BME280;33526;42.690;23.322;2023-05-21T05:26:31;94895.66;;;16.21;73.77
47763;BME280;33526;42.690;23.322;2023-05-21T05:28:56;94891.78;;;16.18;73.18
47763;BME280;33526;42.690;23.322;2023-05-21T05:31:22;94888.94;;;16.13;73.17
47763;BME280;33526;42.690;23.322;2023-05-21T05:33:47;94862.75;;;15.95;73.25
47763;BME280;33526;42.690;23.322;2023-05-21T05:36:13;94902.03;;;16.21;73.10
47763;BME280;33526;42.690;23.322;2023-05-21T05:38:38;94885.13;;;16.33;72.24
47763;BME280;33526;42.690;23.322;2023-05-21T05:41:04;94901.56;;;16.62;72.68
47763;BME280;33526;42.690;23.322;2023-05-21T05:43:29;94902.34;;;16.97;69.99
47763;BME280;33526;42.690;23.322;2023-05-21T05:45:55;94873.34;;;16.85;68.94
47763;BME280;33526;42.690;23.322;2023-05-21T05:48:20;94896.66;;;17.08;69.14
47763;BME280;33526;42.690;23.322;2023-05-21T05:50:46;94851.50;;;16.74;68.30
47763;BME280;33526;42.690;23.322;2023-05-21T05:53:12;94893.59;;;17.06;67.70
47763;BME280;33526;42.690;23.322;2023-05-21T05:55:39;94886.09;;;17.31;68.08
47763;BME280;33526;42.690;23.322;2023-05-21T05:58:05;94889.25;;;17.75;67.31
47763;BME280;33526;42.690;23.322;2023-05-21T06:00:31;94905.34;;;18.03;65.83
47763;BME280;33526;42.690;23.322;2023-05-21T06:02:56;94888.22;;;18.25;64.41
47763;BME280;33526;42.690;23.322;2023-05-21T06:05:22;94873.69;;;18.46;63.76
47763;BME280;33526;42.690;23.322;2023-05-21T06:07:47;94875.34;;;19.21;61.11
47763;BME280;33526;42.690;23.322;2023-05-21T06:10:13;94864.75;;;19.90;57.57
47763;BME280;33526;42.690;23.322;2023-05-21T06:12:38;94857.09;;;20.03;57.06
47763;BME280;33526;42.690;23.322;2023-05-21T06:15:04;94864.16;;;20.35;56.31
47763;BME280;33526;42.690;23.322;2023-05-21T06:17:30;94867.56;;;19.95;54.81
47763;BME280;33526;42.690;23.322;2023-05-21T06:19:56;94884.09;;;20.10;53.04
47763;BME280;33526;42.690;23.322;2023-05-21T06:22:21;94867.56;;;19.71;54.51
47763;BME280;33526;42.690;23.322;2023-05-21T06:24:48;94872.13;;;19.36;53.74
47763;BME280;33526;42.690;23.322;2023-05-21T06:27:13;94875.22;;;19.57;54.74
47763;BME280;33526;42.690;23.322;2023-05-21T06:29:38;94871.22;;;19.46;55.37
47763;BME280;33526;42.690;23.322;2023-05-21T06:32:06;94861.59;;;19.31;55.48
47763;BME280;33526;42.690;23.322;2023-05-21T06:34:32;94855.16;;;19.30;55.20
47763;BME280;33526;42.690;23.322;2023-05-21T06:36:57;94841.13;;;19.19;54.03
47763;BME280;33526;42.690;23.322;2023-05-21T06:39:23;94835.22;;;19.17;54.48
47763;BME280;33526;42.690;23.322;2023-05-21T06:41:48;94849.50;;;19.05;54.35
47763;BME280;33526;42.690;23.322;2023-05-21T06:44:14;94871.22;;;18.97;54.73
47763;BME280;33526;42.690;23.322;2023-05-21T06:46:41;94857.53;;;19.26;54.48
47763;BME280;33526;42.690;23.322;2023-05-21T06:49:06;94862.38;;;19.31;54.50
47763;BME280;33526;42.690;23.322;2023-05-21T06:51:32;94842.69;;;19.39;54.46
47763;BME280;33526;42.690;23.322;2023-05-21T06:53:57;94829.09;;;19.13;53.49
47763;BME280;33526;42.690;23.322;2023-05-21T06:56:23;94848.78;;;19.48;53.28
47763;BME280;33526;42.690;23.322;2023-05-21T06:58:48;94849.69;;;19.57;53.57
47763;BME280;33526;42.690;23.322;2023-05-21T07:01:14;94851.59;;;19.92;52.59
47763;BME280;33526;42.690;23.322;2023-05-21T07:03:40;94861.94;;;19.90;51.88
47763;BME280;33526;42.690;23.322;2023-05-21T07:06:06;94853.56;;;19.78;51.67
47763;BME280;33526;42.690;23.322;2023-05-21T07:08:31;94841.72;;;19.55;53.04
47763;BME280;33526;42.690;23.322;2023-05-21T07:10:57;94854.59;;;19.81;53.20
47763;BME280;33526;42.690;23.322;2023-05-21T07:13:22;94838.34;;;19.57;53.31
47763;BME280;33526;42.690;23.322;2023-05-21T07:15:48;94851.31;;;19.71;53.87
47763;BME280;33526;42.690;23.322;2023-05-21T07:18:13;94803.25;;;19.60;52.92
47763;BME280;33526;42.690;23.322;2023-05-21T07:20:39;94848.97;;;19.94;52.80
47763;BME280;33526;42.690;23.322;2023-05-21T07:23:04;94844.38;;;20.10;52.66
47763;BME280;33526;42.690;23.322;2023-05-21T07:25:30;94828.25;;;20.18;52.65
47763;BME280;33526;42.690;23.322;2023-05-21T07:27:55;94832.41;;;20.17;51.81
47763;BME280;33526;42.690;23.322;2023-05-21T07:30:21;94834.06;;;19.69;52.52
47763;BME280;33526;42.690;23.322;2023-05-21T07:32:46;94860.09;;;19.73;53.15
47763;BME280;33526;42.690;23.322;2023-05-21T07:35:12;94835.13;;;19.66;52.58
47763;BME280;33526;42.690;23.322;2023-05-21T07:37:37;94846.00;;;19.43;53.95
47763;BME280;33526;42.690;23.322;2023-05-21T07:40:03;94844.16;;;19.45;53.91
47763;BME280;33526;42.690;23.322;2023-05-21T07:42:29;94853.13;;;19.74;54.18
47763;BME280;33526;42.690;23.322;2023-05-21T07:44:55;94850.75;;;19.78;54.04
47763;BME280;33526;42.690;23.322;2023-05-21T07:47:20;94819.97;;;19.63;53.81
47763;BME280;33526;42.690;23.322;2023-05-21T07:49:47;94846.63;;;19.55;54.46
47763;BME280;33526;42.690;23.322;2023-05-21T07:52:13;94849.09;;;19.64;55.07
47763;BME280;33526;42.690;23.322;2023-05-21T07:54:38;94824.00;;;19.74;54.42
47763;BME280;33526;42.690;23.322;2023-05-21T07:57:04;94818.53;;;19.95;54.50
47763;BME280;33526;42.690;23.322;2023-05-21T07:59:29;94805.31;;;20.16;49.17
47763;BME280;33526;42.690;23.322;2023-05-21T08:01:55;94842.03;;;20.79;47.89
47763;BME280;33526;42.690;23.322;2023-05-21T08:04:21;94826.47;;;21.12;46.70
47763;BME280;33526;42.690;23.322;2023-05-21T08:06:46;94828.97;;;21.43;44.52
47763;BME280;33526;42.690;23.322;2023-05-21T08:09:12;94819.34;;;21.19;41.99
47763;BME280;33526;42.690;23.322;2023-05-21T08:11:38;94847.56;;;21.57;40.71
47763;BME280;33526;42.690;23.322;2023-05-21T08:14:03;94853.72;;;21.61;40.40
47763;BME280;33526;42.690;23.322;2023-05-21T08:16:29;94847.56;;;21.30;39.74
47763;BME280;33526;42.690;23.322;2023-05-21T08:18:54;94846.34;;;21.26;39.80
47763;BME280;33526;42.690;23.322;2023-05-21T08:21:21;94844.09;;;21.51;39.40
47763;BME280;33526;42.690;23.322;2023-05-21T08:23:46;94839.88;;;21.12;39.85
47763;BME280;33526;42.690;23.322;2023-05-21T08:26:12;94829.84;;;21.11;40.52
47763;BME280;33526;42.690;23.322;2023-05-21T08:28:40;94828.66;;;21.19;39.73
47763;BME280;33526;42.690;23.322;2023-05-21T08:31:06;94808.44;;;21.23;39.79
47763;BME280;33526;42.690;23.322;2023-05-21T08:33:34;94834.22;;;21.25;40.37
47763;BME280;33526;42.690;23.322;2023-05-21T08:36:01;94847.97;;;21.08;39.87
47763;BME280;33526;42.690;23.322;2023-05-21T08:38:26;94811.75;;;20.68;40.11
47763;BME280;33526;42.690;23.322;2023-05-21T08:40:53;94829.91;;;20.92;39.78
47763;BME280;33526;42.690;23.322;2023-05-21T08:43:19;94835.41;;;21.16;38.77
47763;BME280;33526;42.690;23.322;2023-05-21T08:45:48;94815.41;;;21.35;38.10
47763;BME280;33526;42.690;23.322;2023-05-21T08:48:17;94826.34;;;21.71;37.92
47763;BME280;33526;42.690;23.322;2023-05-21T08:50:44;94826.78;;;21.62;37.90
47763;BME280;33526;42.690;23.322;2023-05-21T08:53:09;94843.00;;;21.54;37.31
47763;BME280;33526;42.690;23.322;2023-05-21T08:55:35;94800.78;;;21.18;37.40
47763;BME280;33526;42.690;23.322;2023-05-21T08:58:03;94841.66;;;21.42;38.54
47763;BME280;33526;42.690;23.322;2023-05-21T09:00:28;94833.59;;;21.46;39.18
47763;BME280;33526;42.690;23.322;2023-05-21T09:02:54;94816.16;;;21.23;39.89
47763;BME280;33526;42.690;23.322;2023-05-21T09:05:21;94844.72;;;21.57;39.13
47763;BME280;33526;42.690;23.322;2023-05-21T09:08:00;94827.66;;;21.44;38.59
47763;BME280;33526;42.690;23.322;2023-05-21T09:10:35;94832.13;;;21.26;39.54
47763;BME280;33526;42.690;23.322;2023-05-21T09:13:01;94842.75;;;21.38;40.58
47763;BME280;33526;42.690;23.322;2023-05-21T09:15:27;94834.88;;;21.45;40.59
47763;BME280;33526;42.690;23.322;2023-05-21T09:17:53;94829.19;;;21.45;41.52
47763;BME280;33526;42.690;23.322;2023-05-21T09:20:23;94839.50;;;21.61;40.30
47763;BME280;33526;42.690;23.322;2023-05-21T09:22:50;94842.97;;;21.81;38.57
47763;BME280;33526;42.690;23.322;2023-05-21T09:25:21;94791.44;;;21.71;38.65
47763;BME280;33526;42.690;23.322;2023-05-21T09:27:47;94842.13;;;22.07;38.33
47763;BME280;33526;42.690;23.322;2023-05-21T09:30:14;94838.00;;;22.08;38.53
47763;BME280;33526;42.690;23.322;2023-05-21T09:32:41;94835.44;;;22.18;40.25
47763;BME280;33526;42.690;23.322;2023-05-21T09:37:43;94832.75;;;21.99;36.90
47763;BME280;33526;42.690;23.322;2023-05-21T09:42:37;94828.59;;;22.34;36.41
47763;BME280;33526;42.690;23.322;2023-05-21T09:45:03;94823.13;;;22.36;36.40
47763;BME280;33526;42.690;23.322;2023-05-21T09:47:29;94827.44;;;22.29;35.87
47763;BME280;33526;42.690;23.322;2023-05-21T09:49:59;94800.50;;;22.17;34.67
47763;BME280;33526;42.690;23.322;2023-05-21T09:52:24;94815.22;;;22.42;34.88
47763;BME280;33526;42.690;23.322;2023-05-21T09:54:50;94823.22;;;22.09;35.30
47763;BME280;33526;42.690;23.322;2023-05-21T09:57:22;94823.81;;;22.29;35.81
47763;BME280;33526;42.690;23.322;2023-05-21T09:59:49;94810.78;;;22.55;35.66
47763;BME280;33526;42.690;23.322;2023-05-21T10:02:24;94803.69;;;22.69;35.67
47763;BME280;33526;42.690;23.322;2023-05-21T10:04:51;94809.31;;;22.61;36.21
47763;BME280;33526;42.690;23.322;2023-05-21T10:07:20;94809.38;;;22.69;35.93
47763;BME280;33526;42.690;23.322;2023-05-21T10:09:52;94813.50;;;22.26;34.71
47763;BME280;33526;42.690;23.322;2023-05-21T10:12:19;94801.59;;;22.14;34.86
47763;BME280;33526;42.690;23.322;2023-05-21T10:14:50;94811.09;;;22.30;35.37
47763;BME280;33526;42.690;23.322;2023-05-21T10:17:18;94789.00;;;22.23;34.58
47763;BME280;33526;42.690;23.322;2023-05-21T10:19:46;94795.84;;;22.06;35.19
47763;BME280;33526;42.690;23.322;2023-05-21T10:22:13;94793.13;;;22.22;35.33
47763;BME280;33526;42.690;23.322;2023-05-21T10:24:39;94766.84;;;22.29;35.34
47763;BME280;33526;42.690;23.322;2023-05-21T10:27:06;94760.50;;;22.23;36.55
47763;BME280;33526;42.690;23.322;2023-05-21T10:29:32;94781.38;;;22.39;35.72
47763;BME280;33526;42.690;23.322;2023-05-21T10:32:00;94797.56;;;22.65;36.62
47763;BME280;33526;42.690;23.322;2023-05-21T10:34:27;94747.63;;;22.43;34.90
47763;BME280;33526;42.690;23.322;2023-05-21T10:36:53;94798.03;;;22.98;33.81
47763;BME280;33526;42.690;23.322;2023-05-21T10:39:21;94781.13;;;23.00;35.38
47763;BME280;33526;42.690;23.322;2023-05-21T10:42:04;94783.53;;;23.17;34.22
47763;BME280;33526;42.690;23.322;2023-05-21T10:47:39;94790.19;;;22.90;35.70
47763;BME280;33526;42.690;23.322;2023-05-21T10:58:52;94796.75;;;22.57;36.04
47763;BME280;33526;42.690;23.322;2023-05-21T11:01:30;94760.31;;;22.21;36.27
47763;BME280;33526;42.690;23.322;2023-05-21T11:04:00;94794.22;;;22.32;36.46
47763;BME280;33526;42.690;23.322;2023-05-21T11:06:26;94783.00;;;22.13;36.98
47763;BME280;33526;42.690;23.322;2023-05-21T11:08:52;94789.72;;;22.02;37.78
47763;BME280;33526;42.690;23.322;2023-05-21T11:11:45;94755.47;;;21.73;37.84
47763;BME280;33526;42.690;23.322;2023-05-21T11:14:37;94781.91;;;21.82;38.92
47763;BME280;33526;42.690;23.322;2023-05-21T11:17:10;94784.47;;;21.58;38.95
47763;BME280;33526;42.690;23.322;2023-05-21T11:19:47;94785.78;;;21.57;38.94
47763;BME280;33526;42.690;23.322;2023-05-21T11:22:24;94772.81;;;21.83;39.44
47763;BME280;33526;42.690;23.322;2023-05-21T11:24:50;94783.00;;;22.13;38.78
47763;BME280;33526;42.690;23.322;2023-05-21T11:27:32;94782.44;;;22.28;38.16
47763;BME280;33526;42.690;23.322;2023-05-21T11:29:58;94774.34;;;22.19;37.74
47763;BME280;33526;42.690;23.322;2023-05-21T11:32:24;94727.47;;;21.99;38.27
47763;BME280;33526;42.690;23.322;2023-05-21T11:34:49;94728.63;;;22.03;38.82
47763;BME280;33526;42.690;23.322;2023-05-21T11:39:47;94760.59;;;22.09;38.60
47763;BME280;33526;42.690;23.322;2023-05-21T11:42:26;94769.84;;;21.89;39.22
47763;BME280;33526;42.690;23.322;2023-05-21T11:44:52;94754.53;;;21.79;39.36
47763;BME280;33526;42.690;23.322;2023-05-21T11:47:20;94756.59;;;21.91;39.73
47763;BME280;33526;42.690;23.322;2023-05-21T11:49:46;94750.66;;;21.42;39.74
47763;BME280;33526;42.690;23.322;2023-05-21T11:52:12;94763.69;;;21.37;39.81
47763;BME280;33526;42.690;23.322;2023-05-21T11:54:46;94754.63;;;21.25;40.26
47763;BME280;33526;42.690;23.322;2023-05-21T11:57:16;94743.34;;;21.33;40.87
47763;BME280;33526;42.690;23.322;2023-05-21T11:59:49;94741.94;;;21.39;40.47
47763;BME280;33526;42.690;23.322;2023-05-21T12:02:19;94761.75;;;21.45;40.49
47763;BME280;33526;42.690;23.322;2023-05-21T12:04:46;94757.94;;;21.16;40.54
47763;BME280;33526;42.690;23.322;2023-05-21T12:07:13;94757.47;;;21.12;40.92
47763;BME280;33526;42.690;23.322;2023-05-21T12:09:47;94731.25;;;20.92;42.38
47763;BME280;33526;42.690;23.322;2023-05-21T12:12:14;94679.75;;;20.56;42.36
47763;BME280;33526;42.690;23.322;2023-05-21T12:14:48;94747.53;;;20.92;43.50
47763;BME280;33526;42.690;23.322;2023-05-21T12:17:19;94748.50;;;20.81;43.06
47763;BME280;33526;42.690;23.322;2023-05-21T12:19:46;94701.03;;;20.36;43.30
47763;BME280;33526;42.690;23.322;2023-05-21T12:22:12;94754.50;;;20.64;44.04
47763;BME280;33526;42.690;23.322;2023-05-21T12:24:40;94746.72;;;20.51;44.61
47763;BME280;33526;42.690;23.322;2023-05-21T12:27:08;94751.75;;;20.58;45.02
47763;BME280;33526;42.690;23.322;2023-05-21T12:29:35;94751.44;;;20.62;45.20
47763;BME280;33526;42.690;23.322;2023-05-21T12:32:03;94700.50;;;20.51;44.72
47763;BME280;33526;42.690;23.322;2023-05-21T12:34:52;94731.69;;;20.83;45.23
47763;BME280;33526;42.690;23.322;2023-05-21T12:37:25;94745.25;;;21.04;43.95
47763;BME280;33526;42.690;23.322;2023-05-21T12:39:52;94737.34;;;21.10;43.71
47763;BME280;33526;42.690;23.322;2023-05-21T12:42:24;94736.28;;;21.13;43.51
47763;BME280;33526;42.690;23.322;2023-05-21T12:44:51;94718.56;;;20.93;43.25
47763;BME280;33526;42.690;23.322;2023-05-21T12:47:17;94712.22;;;21.00;42.62
47763;BME280;33526;42.690;23.322;2023-05-21T12:49:44;94714.53;;;21.02;43.70
47763;BME280;33526;42.690;23.322;2023-05-21T12:52:13;94720.09;;;21.08;43.78
47763;BME280;33526;42.690;23.322;2023-05-21T12:54:40;94713.31;;;20.97;42.91
47763;BME280;33526;42.690;23.322;2023-05-21T12:57:14;94731.25;;;21.06;43.49
47763;BME280;33526;42.690;23.322;2023-05-21T13:02:19;94713.44;;;20.78;42.95
47763;BME280;33526;42.690;23.322;2023-05-21T13:04:45;94727.19;;;20.61;45.01
47763;BME280;33526;42.690;23.322;2023-05-21T13:07:12;94738.97;;;20.65;45.62
47763;BME280;33526;42.690;23.322;2023-05-21T13:09:37;94729.72;;;20.65;48.36
47763;BME280;33526;42.690;23.322;2023-05-21T13:12:03;94731.06;;;20.58;49.76
47763;BME280;33526;42.690;23.322;2023-05-21T13:14:28;94728.13;;;20.50;49.72